createdAt,value
2017-08-23T00:02:29.659Z,76.08
2017-08-23T00:07:59.215Z,75.85
2017-08-23T00:10:30.653Z,76.12
2017-08-23T00:13:03.580Z,76.02
2017-08-23T00:15:34.186Z,75.89
2017-08-23T00:18:04.336Z,75.94
2017-08-23T00:20:33.236Z,76.12
2017-08-23T00:23:05.276Z,76.05
2017-08-23T00:25:34.189Z,76.12
2017-08-23T00:28:02.847Z,76.08
2017-08-23T00:30:31.602Z,76.14
2017-08-23T00:33:03.884Z,76.19
2017-08-23T00:35:32.875Z,76.06
2017-08-23T00:38:01.628Z,76.17
2017-08-23T00:40:30.334Z,76.28
2017-08-23T00:43:01.680Z,76.20
2017-08-23T00:45:31.017Z,76.33
2017-08-23T00:47:59.829Z,76.49
2017-08-23T00:50:28.797Z,76.25
2017-08-23T00:52:57.747Z,76.41
2017-08-23T00:55:26.250Z,76.36
2017-08-23T00:57:55.069Z,76.32
2017-08-23T01:00:24.477Z,76.50
2017-08-23T01:02:54.030Z,76.31
2017-08-23T01:05:23.112Z,76.53
2017-08-23T01:07:51.784Z,76.45
2017-08-23T01:10:20.822Z,76.59
2017-08-23T01:12:49.923Z,76.58
2017-08-23T01:15:18.700Z,76.55
2017-08-23T01:17:47.487Z,76.91
2017-08-23T01:20:16.226Z,76.73
2017-08-23T01:22:45.290Z,76.76
2017-08-23T01:25:14.510Z,76.73
2017-08-23T01:27:44.384Z,76.62
2017-08-23T01:30:12.881Z,76.61
2017-08-23T01:32:42.148Z,76.72
2017-08-23T01:35:10.950Z,76.88
2017-08-23T01:37:39.943Z,76.52
2017-08-23T01:40:08.841Z,76.75
2017-08-23T01:42:37.663Z,76.75
2017-08-23T01:45:06.441Z,76.92
2017-08-23T01:47:34.980Z,76.75
2017-08-23T01:50:03.719Z,76.99
2017-08-23T01:52:32.503Z,76.95
2017-08-23T01:55:02.345Z,76.96
2017-08-23T01:57:31.164Z,76.85
2017-08-23T02:00:00.028Z,77.02
2017-08-23T02:02:28.735Z,77.07
2017-08-23T02:04:58.436Z,77.02
2017-08-23T02:07:27.782Z,76.98
2017-08-23T02:09:56.579Z,77.02
2017-08-23T02:12:25.254Z,76.90
2017-08-23T02:14:53.916Z,77.13
2017-08-23T02:17:22.564Z,77.03
2017-08-23T02:19:52.199Z,77.04
2017-08-23T02:22:21.013Z,77.21
2017-08-23T02:24:50.311Z,77.16
2017-08-23T02:27:19.341Z,77.17
2017-08-23T02:29:48.786Z,77.21
2017-08-23T02:32:18.026Z,77.17
2017-08-23T02:34:46.713Z,77.09
2017-08-23T02:37:15.494Z,77.11
2017-08-23T02:39:44.271Z,77.19
2017-08-23T02:42:13.323Z,77.42
2017-08-23T02:44:42.322Z,77.21
2017-08-23T02:47:11.562Z,77.21
2017-08-23T02:49:40.277Z,77.33
2017-08-23T02:52:10.786Z,77.34
2017-08-23T02:54:39.834Z,77.30
2017-08-23T02:57:08.711Z,77.29
2017-08-23T02:59:37.722Z,77.37
2017-08-23T03:02:06.420Z,77.36
2017-08-23T03:04:35.595Z,77.50
2017-08-23T03:07:05.833Z,77.64
2017-08-23T03:09:34.389Z,77.57
2017-08-23T03:12:03.229Z,77.62
2017-08-23T03:14:32.096Z,77.66
2017-08-23T03:17:00.923Z,77.59
2017-08-23T03:19:29.591Z,77.94
2017-08-23T03:21:58.837Z,77.94
2017-08-23T03:24:28.318Z,77.91
2017-08-23T03:26:57.491Z,77.61
2017-08-23T03:29:26.276Z,77.69
2017-08-23T03:31:55.075Z,77.98
2017-08-23T03:34:24.680Z,77.84
2017-08-23T03:36:53.181Z,77.76
2017-08-23T03:39:21.929Z,77.65
2017-08-23T03:41:50.610Z,77.76
2017-08-23T03:44:19.670Z,77.71
2017-08-23T03:46:48.448Z,77.79
2017-08-23T03:49:17.294Z,77.71
2017-08-23T03:51:46.151Z,77.75
2017-08-23T03:54:14.960Z,77.74
2017-08-23T03:56:43.831Z,77.82
2017-08-23T03:59:12.443Z,77.93
2017-08-23T04:01:41.309Z,77.84
2017-08-23T04:04:10.538Z,77.74
2017-08-23T04:06:39.422Z,77.94
2017-08-23T04:09:08.250Z,77.86
2017-08-23T04:11:37.103Z,77.84
2017-08-23T04:14:09.087Z,77.87
2017-08-23T04:16:39.979Z,77.89
2017-08-23T04:19:08.957Z,77.67
2017-08-23T04:21:38.279Z,77.80
2017-08-23T04:24:07.292Z,77.83
2017-08-23T04:26:36.055Z,77.72
2017-08-23T04:29:04.911Z,77.71
2017-08-23T04:31:33.827Z,77.82
2017-08-23T04:34:02.752Z,77.76
2017-08-23T04:36:31.542Z,77.82
2017-08-23T04:39:01.185Z,77.93
2017-08-23T04:41:29.971Z,77.88
2017-08-23T04:43:59.104Z,77.59
2017-08-23T04:46:28.116Z,77.63
2017-08-23T04:48:56.934Z,77.58
2017-08-23T04:51:26.678Z,77.53
2017-08-23T04:53:55.393Z,77.53
2017-08-23T04:56:24.766Z,77.45
2017-08-23T04:58:53.575Z,77.63
2017-08-23T05:01:22.636Z,77.74
2017-08-23T05:03:51.453Z,77.82
2017-08-23T05:06:20.401Z,77.86
2017-08-23T05:08:49.314Z,77.87
2017-08-23T05:11:18.188Z,77.81
2017-08-23T05:13:46.945Z,78.00
2017-08-23T05:16:15.722Z,78.12
2017-08-23T05:18:44.545Z,78.12
2017-08-23T05:21:13.342Z,78.03
2017-08-23T05:23:42.894Z,77.95
2017-08-23T05:26:11.845Z,78.07
2017-08-23T05:28:41.402Z,78.03
2017-08-23T05:31:10.297Z,78.04
2017-08-23T05:33:39.017Z,78.08
2017-08-23T05:36:09.320Z,78.08
2017-08-23T05:38:38.237Z,78.04
2017-08-23T05:41:07.106Z,78.10
2017-08-23T05:43:36.108Z,78.06
2017-08-23T05:46:05.021Z,78.09
2017-08-23T05:48:33.829Z,78.00
2017-08-23T05:51:02.814Z,77.86
2017-08-23T05:53:31.805Z,77.84
2017-08-23T05:56:00.727Z,77.82
2017-08-23T05:58:29.697Z,77.75
2017-08-23T06:00:58.627Z,77.76
2017-08-23T06:03:28.146Z,77.52
2017-08-23T06:05:56.953Z,77.57
2017-08-23T06:08:25.878Z,77.54
2017-08-23T06:10:54.407Z,77.55
2017-08-23T06:13:23.242Z,77.50
2017-08-23T06:15:52.165Z,77.38
2017-08-23T06:18:21.242Z,77.15
2017-08-23T06:20:50.085Z,77.15
2017-08-23T06:23:18.929Z,77.01
2017-08-23T06:25:48.680Z,77.02
2017-08-23T06:28:17.454Z,77.01
2017-08-23T06:30:46.255Z,77.03
2017-08-23T06:33:14.946Z,77.01
2017-08-23T06:35:43.352Z,76.95
2017-08-23T06:38:13.188Z,76.88
2017-08-23T06:40:42.816Z,76.88
2017-08-23T06:43:11.692Z,77.01
2017-08-23T06:45:40.498Z,76.92
2017-08-23T06:48:10.052Z,76.90
2017-08-23T06:50:38.897Z,76.85
2017-08-23T06:53:07.638Z,76.89
2017-08-23T06:55:37.293Z,76.96
2017-08-23T06:58:06.153Z,77.06
2017-08-23T07:00:34.884Z,77.08
2017-08-23T07:03:06.277Z,77.12
2017-08-23T07:05:35.209Z,77.14
2017-08-23T07:08:05.181Z,77.15
2017-08-23T07:10:33.882Z,77.18
2017-08-23T07:13:04.668Z,77.03
2017-08-23T07:15:33.499Z,77.04
2017-08-23T07:18:02.410Z,77.06
2017-08-23T07:20:32.090Z,77.12
2017-08-23T07:23:04.645Z,77.03
2017-08-23T07:25:33.499Z,77.10
2017-08-23T07:28:03.087Z,77.09
2017-08-23T07:30:32.885Z,77.18
2017-08-23T07:33:03.748Z,77.11
2017-08-23T07:35:32.605Z,77.12
2017-08-23T07:38:01.620Z,77.17
2017-08-23T07:40:30.411Z,77.10
2017-08-23T07:43:02.172Z,77.05
2017-08-23T07:45:32.253Z,77.12
2017-08-23T07:48:01.239Z,77.11
2017-08-23T07:50:30.221Z,76.97
2017-08-23T07:53:01.783Z,76.96
2017-08-23T07:55:30.724Z,76.95
2017-08-23T07:57:59.693Z,76.90
2017-08-23T08:00:28.797Z,76.87
2017-08-23T08:02:57.748Z,76.81
2017-08-23T08:05:26.639Z,76.89
2017-08-23T08:07:55.926Z,76.72
2017-08-23T08:10:24.909Z,76.63
2017-08-23T08:12:53.870Z,76.41
2017-08-23T08:15:22.882Z,76.46
2017-08-23T08:17:51.649Z,76.51
2017-08-23T08:20:20.711Z,76.52
2017-08-23T08:22:49.619Z,76.25
2017-08-23T08:25:18.619Z,76.29
2017-08-23T08:27:47.466Z,76.07
2017-08-23T08:30:16.426Z,76.08
2017-08-23T08:32:45.513Z,75.92
2017-08-23T08:35:14.554Z,75.84
2017-08-23T08:37:43.595Z,75.75
2017-08-23T08:40:12.814Z,75.71
2017-08-23T08:42:41.959Z,75.63
2017-08-23T08:45:11.957Z,75.48
2017-08-23T08:47:41.154Z,75.30
2017-08-23T08:50:10.220Z,75.30
2017-08-23T08:52:39.515Z,75.20
2017-08-23T08:55:08.536Z,75.13
2017-08-23T08:57:37.713Z,74.98
2017-08-23T09:00:06.829Z,74.83
2017-08-23T09:02:35.953Z,74.64
2017-08-23T09:05:05.045Z,74.41
2017-08-23T09:07:34.113Z,74.42
2017-08-23T09:10:03.330Z,74.31
2017-08-23T09:12:32.494Z,74.20
2017-08-23T09:15:01.776Z,74.00
2017-08-23T09:17:30.725Z,73.76
2017-08-23T09:19:59.756Z,73.66
2017-08-23T09:22:28.927Z,73.56
2017-08-23T09:24:58.132Z,73.42
2017-08-23T09:27:27.309Z,73.27
2017-08-23T09:29:56.625Z,73.20
2017-08-23T09:32:25.662Z,72.98
2017-08-23T11:46:30.608Z,70.27
2017-08-23T11:57:23.095Z,70.39
2017-08-23T12:00:24.053Z,70.27
2017-08-23T12:45:54.751Z,68.77
2017-08-23T12:51:13.544Z,68.43
2017-08-23T12:53:56.628Z,68.51
2017-08-23T13:03:03.642Z,68.34
2017-08-23T13:05:40.872Z,68.17
2017-08-23T13:08:16.340Z,68.62
2017-08-23T13:11:02.752Z,68.29
2017-08-23T13:19:21.260Z,67.69
2017-08-23T13:21:56.146Z,67.86
2017-08-23T13:24:29.474Z,67.41
2017-08-23T13:30:04.565Z,67.72
2017-08-23T13:41:28.295Z,67.29
2017-08-23T13:44:07.095Z,66.90
2017-08-23T13:49:22.162Z,67.36
2017-08-23T13:54:43.086Z,66.73
2017-08-23T14:00:13.587Z,66.54
2017-08-23T14:02:49.882Z,66.41
2017-08-23T14:08:16.631Z,66.12
2017-08-23T14:19:46.590Z,65.95
2017-08-23T14:22:37.748Z,65.75
2017-08-23T14:25:16.886Z,65.60
2017-08-23T15:00:22.099Z,64.45
2017-08-23T15:11:43.784Z,63.90
2017-08-23T15:16:55.850Z,63.72
2017-08-23T15:25:10.139Z,59.70
2017-08-23T15:27:38.835Z,60.02
2017-08-23T15:30:07.589Z,61.76
2017-08-23T15:32:37.064Z,61.48
2017-08-23T15:35:05.783Z,60.89
2017-08-23T15:37:34.498Z,60.50
2017-08-23T15:40:02.931Z,60.13
2017-08-23T15:42:31.637Z,60.37
